sensor_id;sensor_type;location;lat;lon;timestamp;pressure;altitude;pressure_sealevel;temperature;humidity
50364;BME280;36272;59.400;17.982;2023-02-23T00:03:05;101565.91;;;0.83;73.89
50364;BME280;36272;59.400;17.982;2023-02-23T00:08:12;101567.16;;;0.89;73.96
50364;BME280;36272;59.400;17.982;2023-02-23T00:13:13;101559.81;;;0.93;73.77
50364;BME280;36272;59.400;17.982;2023-02-23T00:18:15;101554.56;;;0.93;73.79
50364;BME280;36272;59.400;17.982;2023-02-23T00:23:17;101540.25;;;0.95;73.81
50364;BME280;36272;59.400;17.982;2023-02-23T00:28:25;101538.47;;;0.96;74.03
50364;BME280;36272;59.400;17.982;2023-02-23T00:33:27;101527.94;;;0.96;74.00
50364;BME280;36272;59.400;17.982;2023-02-23T00:38:31;101517.25;;;0.97;74.14
50364;BME280;36272;59.400;17.982;2023-02-23T00:43:39;101514.31;;;1.00;74.26
50364;BME280;36272;59.400;17.982;2023-02-23T00:48:50;101509.75;;;1.02;74.09
50364;BME280;36272;59.400;17.982;2023-02-23T00:53:55;101508.66;;;1.05;73.99
50364;BME280;36272;59.400;17.982;2023-02-23T00:58:57;101494.34;;;1.08;74.22
50364;BME280;36272;59.400;17.982;2023-02-23T01:04:00;101492.69;;;1.07;74.07
50364;BME280;36272;59.400;17.982;2023-02-23T01:09:10;101484.66;;;1.08;74.06
50364;BME280;36272;59.400;17.982;2023-02-23T01:14:13;101482.84;;;1.09;73.70
50364;BME280;36272;59.400;17.982;2023-02-23T01:19:14;101480.75;;;1.12;74.12
50364;BME280;36272;59.400;17.982;2023-02-23T01:24:16;101476.16;;;1.14;74.07
50364;BME280;36272;59.400;17.982;2023-02-23T01:29:18;101465.34;;;1.17;74.18
50364;BME280;36272;59.400;17.982;2023-02-23T01:34:20;101457.44;;;1.17;74.31
50364;BME280;36272;59.400;17.982;2023-02-23T01:39:24;101457.16;;;1.21;74.31
50364;BME280;36272;59.400;17.982;2023-02-23T01:49:32;101441.06;;;1.24;74.74
50364;BME280;36272;59.400;17.982;2023-02-23T01:54:37;101429.38;;;1.36;74.99
50364;BME280;36272;59.400;17.982;2023-02-23T01:59:44;101424.16;;;1.16;75.24
50364;BME280;36272;59.400;17.982;2023-02-23T02:04:47;101415.75;;;1.03;76.06
50364;BME280;36272;59.400;17.982;2023-02-23T02:09:56;101409.91;;;0.99;76.74
50364;BME280;36272;59.400;17.982;2023-02-23T02:15:13;101402.56;;;0.93;77.20
50364;BME280;36272;59.400;17.982;2023-02-23T02:25:54;101393.16;;;0.91;77.90
50364;BME280;36272;59.400;17.982;2023-02-23T02:47:00;101351.97;;;0.89;79.23
50364;BME280;36272;59.400;17.982;2023-02-23T02:52:16;101343.09;;;0.91;79.39
50364;BME280;36272;59.400;17.982;2023-02-23T02:57:24;101334.34;;;0.90;79.47
50364;BME280;36272;59.400;17.982;2023-02-23T03:02:27;101332.56;;;0.91;79.72
50364;BME280;36272;59.400;17.982;2023-02-23T03:07:59;101326.31;;;0.92;79.97
50364;BME280;36272;59.400;17.982;2023-02-23T03:13:56;101327.00;;;0.94;80.38
50364;BME280;36272;59.400;17.982;2023-02-23T03:19:30;101316.75;;;0.91;80.69
50364;BME280;36272;59.400;17.982;2023-02-23T03:24:58;101312.97;;;0.93;80.52
50364;BME280;36272;59.400;17.982;2023-02-23T03:30:28;101300.19;;;1.08;81.38
50364;BME280;36272;59.400;17.982;2023-02-23T03:36:42;101295.38;;;0.94;80.66
50364;BME280;36272;59.400;17.982;2023-02-23T03:41:43;101296.06;;;0.96;80.53
50364;BME280;36272;59.400;17.982;2023-02-23T03:47:06;101289.16;;;0.95;81.04
50364;BME280;36272;59.400;17.982;2023-02-23T03:52:36;101280.28;;;0.96;81.34
50364;BME280;36272;59.400;17.982;2023-02-23T03:57:58;101275.81;;;0.96;81.35
50364;BME280;36272;59.400;17.982;2023-02-23T04:03:19;101264.19;;;0.99;81.29
50364;BME280;36272;59.400;17.982;2023-02-23T04:08:42;101255.59;;;0.97;81.41
50364;BME280;36272;59.400;17.982;2023-02-23T04:14:04;101251.97;;;0.98;81.69
50364;BME280;36272;59.400;17.982;2023-02-23T04:19:07;101251.69;;;1.01;81.55
50364;BME280;36272;59.400;17.982;2023-02-23T04:24:09;101244.59;;;1.01;81.74
50364;BME280;36272;59.400;17.982;2023-02-23T04:29:11;101238.34;;;1.02;81.76
50364;BME280;36272;59.400;17.982;2023-02-23T04:34:13;101233.94;;;1.03;81.74
50364;BME280;36272;59.400;17.982;2023-02-23T04:39:17;101234.91;;;1.02;82.18
50364;BME280;36272;59.400;17.982;2023-02-23T04:44:19;101221.72;;;1.02;82.03
50364;BME280;36272;59.400;17.982;2023-02-23T04:49:21;101220.06;;;1.01;82.12
50364;BME280;36272;59.400;17.982;2023-02-23T04:54:23;101207.41;;;1.04;82.21
50364;BME280;36272;59.400;17.982;2023-02-23T04:59:24;101200.50;;;1.03;82.56
50364;BME280;36272;59.400;17.982;2023-02-23T05:04:27;101201.47;;;1.02;82.60
50364;BME280;36272;59.400;17.982;2023-02-23T05:09:30;101198.69;;;1.04;82.68
50364;BME280;36272;59.400;17.982;2023-02-23T05:14:31;101195.09;;;1.05;82.80
50364;BME280;36272;59.400;17.982;2023-02-23T05:19:33;101186.22;;;1.06;82.62
50364;BME280;36272;59.400;17.982;2023-02-23T05:24:35;101183.56;;;1.06;82.91
50364;BME280;36272;59.400;17.982;2023-02-23T05:29:37;101172.06;;;1.07;82.85
50364;BME280;36272;59.400;17.982;2023-02-23T05:34:39;101160.84;;;1.05;83.04
50364;BME280;36272;59.400;17.982;2023-02-23T05:39:41;101159.19;;;1.04;83.23
50364;BME280;36272;59.400;17.982;2023-02-23T05:44:43;101144.88;;;1.07;83.35
50364;BME280;36272;59.400;17.982;2023-02-23T05:49:50;101130.72;;;1.08;83.38
50364;BME280;36272;59.400;17.982;2023-02-23T05:54:51;101128.75;;;1.10;83.44
50364;BME280;36272;59.400;17.982;2023-02-23T05:59:56;101117.75;;;1.14;83.47
50364;BME280;36272;59.400;17.982;2023-02-23T06:05:01;101108.19;;;1.13;83.73
50364;BME280;36272;59.400;17.982;2023-02-23T06:10:08;101103.59;;;1.15;83.87
50364;BME280;36272;59.400;17.982;2023-02-23T06:15:10;101099.00;;;1.17;83.75
50364;BME280;36272;59.400;17.982;2023-02-23T06:20:15;101091.66;;;1.21;83.73
50364;BME280;36272;59.400;17.982;2023-02-23T06:25:20;101073.19;;;1.21;84.04
50364;BME280;36272;59.400;17.982;2023-02-23T06:30:22;101081.53;;;1.16;84.13
50364;BME280;36272;59.400;17.982;2023-02-23T06:35:26;101070.69;;;1.19;84.29
50364;BME280;36272;59.400;17.982;2023-02-23T06:40:31;101067.75;;;1.23;84.10
50364;BME280;36272;59.400;17.982;2023-02-23T06:45:34;101071.69;;;1.18;84.59
50364;BME280;36272;59.400;17.982;2023-02-23T06:50:50;101060.69;;;1.23;84.39
50364;BME280;36272;59.400;17.982;2023-02-23T06:55:52;101051.63;;;1.26;84.29
50364;BME280;36272;59.400;17.982;2023-02-23T07:00:55;101046.38;;;1.26;84.75
50364;BME280;36272;59.400;17.982;2023-02-23T07:05:57;101048.41;;;1.32;84.68
50364;BME280;36272;59.400;17.982;2023-02-23T07:11:10;101037.56;;;1.35;84.67
50364;BME280;36272;59.400;17.982;2023-02-23T07:16:13;101032.97;;;1.37;84.59
50364;BME280;36272;59.400;17.982;2023-02-23T07:21:16;101027.22;;;1.42;84.76
50364;BME280;36272;59.400;17.982;2023-02-23T07:26:18;101026.91;;;1.45;84.71
50364;BME280;36272;59.400;17.982;2023-02-23T07:31:20;101014.09;;;1.50;85.11
50364;BME280;36272;59.400;17.982;2023-02-23T07:36:22;101012.00;;;1.54;85.08
50364;BME280;36272;59.400;17.982;2023-02-23T07:41:24;101009.34;;;1.54;85.22
50364;BME280;36272;59.400;17.982;2023-02-23T07:46:26;101008.41;;;1.63;85.35
50364;BME280;36272;59.400;17.982;2023-02-23T07:51:33;101001.81;;;1.67;85.54
50364;BME280;36272;59.400;17.982;2023-02-23T07:56:34;100997.75;;;1.73;85.13
50364;BME280;36272;59.400;17.982;2023-02-23T08:01:36;100998.75;;;1.80;85.18
50364;BME280;36272;59.400;17.982;2023-02-23T08:06:38;100996.78;;;1.82;85.34
50364;BME280;36272;59.400;17.982;2023-02-23T08:11:45;100974.56;;;1.85;85.69
50364;BME280;36272;59.400;17.982;2023-02-23T08:16:49;100985.78;;;1.87;85.68
50364;BME280;36272;59.400;17.982;2023-02-23T08:21:51;100965.34;;;1.89;85.93
50364;BME280;36272;59.400;17.982;2023-02-23T08:26:56;100966.38;;;1.96;85.99
50364;BME280;36272;59.400;17.982;2023-02-23T08:32:08;100956.31;;;2.00;86.02
50364;BME280;36272;59.400;17.982;2023-02-23T08:37:10;100949.06;;;2.02;85.93
50364;BME280;36272;59.400;17.982;2023-02-23T08:42:12;100947.25;;;2.11;86.42
50364;BME280;36272;59.400;17.982;2023-02-23T08:47:15;100935.56;;;2.13;86.22
50364;BME280;36272;59.400;17.982;2023-02-23T08:52:19;100933.94;;;2.12;86.55
50364;BME280;36272;59.400;17.982;2023-02-23T08:57:25;100941.00;;;2.12;87.56
50364;BME280;36272;59.400;17.982;2023-02-23T09:02:27;100921.53;;;2.13;88.00
50364;BME280;36272;59.400;17.982;2023-02-23T09:07:29;100932.28;;;2.11;88.52
50364;BME280;36272;59.400;17.982;2023-02-23T09:13:17;100915.78;;;2.17;88.80
50364;BME280;36272;59.400;17.982;2023-02-23T09:18:06;100906.06;;;2.26;89.11
50364;BME280;36272;59.400;17.982;2023-02-23T09:23:11;100883.78;;;2.29;89.20
50364;BME280;36272;59.400;17.982;2023-02-23T09:28:14;100878.03;;;2.33;89.56
50364;BME280;36272;59.400;17.982;2023-02-23T09:33:16;100878.69;;;2.35;90.00
50364;BME280;36272;59.400;17.982;2023-02-23T09:38:18;100875.72;;;2.38;90.09
50364;BME280;36272;59.400;17.982;2023-02-23T09:48:36;100864.84;;;2.42;90.44
50364;BME280;36272;59.400;17.982;2023-02-23T09:53:40;100862.50;;;2.55;90.06
50364;BME280;36272;59.400;17.982;2023-02-23T09:58:45;100842.72;;;2.67;90.02
50364;BME280;36272;59.400;17.982;2023-02-23T10:03:57;100847.00;;;2.77;89.88
50364;BME280;36272;59.400;17.982;2023-02-23T10:09:14;100848.13;;;2.82;89.38
50364;BME280;36272;59.400;17.982;2023-02-23T10:25:09;100819.25;;;2.73;90.18
50364;BME280;36272;59.400;17.982;2023-02-23T10:30:27;100808.69;;;2.73;90.65
50364;BME280;36272;59.400;17.982;2023-02-23T10:35:29;100804.22;;;2.73;90.54
50364;BME280;36272;59.400;17.982;2023-02-23T10:40:32;100797.28;;;2.72;90.68
50364;BME280;36272;59.400;17.982;2023-02-23T10:45:40;100793.66;;;2.73;90.68
50364;BME280;36272;59.400;17.982;2023-02-23T10:50:45;100785.91;;;2.72;90.80
50364;BME280;36272;59.400;17.982;2023-02-23T10:56:13;100772.84;;;2.70;91.44
50364;BME280;36272;59.400;17.982;2023-02-23T11:01:38;100772.38;;;2.75;91.57
50364;BME280;36272;59.400;17.982;2023-02-23T11:06:41;100782.75;;;2.68;91.24
50364;BME280;36272;59.400;17.982;2023-02-23T11:11:58;100752.88;;;2.76;91.50
50364;BME280;36272;59.400;17.982;2023-02-23T11:17:00;100756.50;;;2.83;90.92
50364;BME280;36272;59.400;17.982;2023-02-23T11:22:05;100741.31;;;2.85;90.58
50364;BME280;36272;59.400;17.982;2023-02-23T11:27:20;100729.25;;;2.74;91.00
50364;BME280;36272;59.400;17.982;2023-02-23T11:32:28;100723.50;;;2.71;91.56
50364;BME280;36272;59.400;17.982;2023-02-23T11:37:31;100724.47;;;2.78;91.22
50364;BME280;36272;59.400;17.982;2023-02-23T11:42:32;100720.16;;;2.85;90.96
50364;BME280;36272;59.400;17.982;2023-02-23T11:47:38;100703.66;;;2.83;91.38
50364;BME280;36272;59.400;17.982;2023-02-23T11:52:42;100694.09;;;2.82;91.09
50364;BME280;36272;59.400;17.982;2023-02-23T11:57:45;100694.91;;;2.74;91.17
50364;BME280;36272;59.400;17.982;2023-02-23T12:02:54;100689.31;;;2.69;91.83
50364;BME280;36272;59.400;17.982;2023-02-23T12:08:06;100671.53;;;2.63;92.31
50364;BME280;36272;59.400;17.982;2023-02-23T12:23:32;100661.56;;;2.73;91.94
50364;BME280;36272;59.400;17.982;2023-02-23T12:28:45;100659.13;;;2.72;92.02
50364;BME280;36272;59.400;17.982;2023-02-23T12:34:01;100640.78;;;2.70;92.13
50364;BME280;36272;59.400;17.982;2023-02-23T12:44:47;100633.34;;;2.74;92.09
50364;BME280;36272;59.400;17.982;2023-02-23T12:50:16;100632.16;;;2.76;92.42
50364;BME280;36272;59.400;17.982;2023-02-23T12:55:32;100619.31;;;2.73;92.48
50364;BME280;36272;59.400;17.982;2023-02-23T13:00:46;100625.38;;;2.82;91.94
50364;BME280;36272;59.400;17.982;2023-02-23T13:06:06;100601.28;;;2.85;92.16
50364;BME280;36272;59.400;17.982;2023-02-23T13:16:31;100589.09;;;2.76;92.27
50364;BME280;36272;59.400;17.982;2023-02-23T13:21:45;100584.41;;;2.86;92.45
50364;BME280;36272;59.400;17.982;2023-02-23T13:26:57;100574.13;;;2.91;92.00
50364;BME280;36272;59.400;17.982;2023-02-23T13:32:03;100573.13;;;2.92;91.85
50364;BME280;36272;59.400;17.982;2023-02-23T13:37:06;100568.50;;;2.94;91.72
50364;BME280;36272;59.400;17.982;2023-02-23T13:52:39;100555.34;;;2.86;92.33
50364;BME280;36272;59.400;17.982;2023-02-23T13:57:47;100548.13;;;2.80;92.34
50364;BME280;36272;59.400;17.982;2023-02-23T14:02:49;100548.63;;;2.75;92.62
50364;BME280;36272;59.400;17.982;2023-02-23T14:07:53;100533.13;;;2.72;92.48
50364;BME280;36272;59.400;17.982;2023-02-23T14:13:06;100530.69;;;2.71;92.98
50364;BME280;36272;59.400;17.982;2023-02-23T14:38:42;100498.38;;;2.60;93.47
50364;BME280;36272;59.400;17.982;2023-02-23T14:43:44;100486.56;;;2.71;93.22
50364;BME280;36272;59.400;17.982;2023-02-23T14:49:07;100475.84;;;2.73;93.69
50364;BME280;36272;59.400;17.982;2023-02-23T14:54:12;100478.16;;;2.76;93.22
50364;BME280;36272;59.400;17.982;2023-02-23T14:59:26;100471.88;;;2.77;93.00
50364;BME280;36272;59.400;17.982;2023-02-23T15:04:28;100461.81;;;2.72;93.16
50364;BME280;36272;59.400;17.982;2023-02-23T15:09:36;100454.22;;;2.69;93.68
50364;BME280;36272;59.400;17.982;2023-02-23T15:14:40;100456.38;;;2.74;93.57
50364;BME280;36272;59.400;17.982;2023-02-23T15:19:42;100444.16;;;2.73;93.32
50364;BME280;36272;59.400;17.982;2023-02-23T15:24:48;100442.16;;;2.75;93.54
50364;BME280;36272;59.400;17.982;2023-02-23T15:29:50;100451.94;;;2.66;93.52
50364;BME280;36272;59.400;17.982;2023-02-23T15:34:54;100435.28;;;2.65;93.78
50364;BME280;36272;59.400;17.982;2023-02-23T15:40:04;100422.88;;;2.66;94.40
50364;BME280;36272;59.400;17.982;2023-02-23T15:50:41;100404.94;;;2.61;94.27
50364;BME280;36272;59.400;17.982;2023-02-23T15:55:44;100401.38;;;2.54;93.46
50364;BME280;36272;59.400;17.982;2023-02-23T16:01:07;100381.13;;;2.46;94.13
50364;BME280;36272;59.400;17.982;2023-02-23T16:06:22;100374.81;;;2.32;93.90
50364;BME280;36272;59.400;17.982;2023-02-23T16:11:25;100385.41;;;2.24;93.51
50364;BME280;36272;59.400;17.982;2023-02-23T16:16:33;100386.81;;;2.12;93.80
50364;BME280;36272;59.400;17.982;2023-02-23T16:21:36;100378.06;;;2.11;94.01
50364;BME280;36272;59.400;17.982;2023-02-23T16:26:44;100370.66;;;2.06;94.13
50364;BME280;36272;59.400;17.982;2023-02-23T16:31:55;100365.94;;;2.02;94.36
50364;BME280;36272;59.400;17.982;2023-02-23T16:37:00;100380.06;;;2.09;94.54
50364;BME280;36272;59.400;17.982;2023-02-23T16:42:03;100381.66;;;2.18;94.22
50364;BME280;36272;59.400;17.982;2023-02-23T16:52:17;100353.56;;;2.26;94.58
50364;BME280;36272;59.400;17.982;2023-02-23T16:57:31;100333.91;;;2.28;94.51
50364;BME280;36272;59.400;17.982;2023-02-23T17:02:34;100337.72;;;2.26;94.03
50364;BME280;36272;59.400;17.982;2023-02-23T17:07:36;100332.44;;;2.26;94.08
50364;BME280;36272;59.400;17.982;2023-02-23T17:12:38;100329.94;;;2.32;93.79
50364;BME280;36272;59.400;17.982;2023-02-23T17:17:39;100339.84;;;2.30;93.84
50364;BME280;36272;59.400;17.982;2023-02-23T17:22:41;100346.75;;;2.31;93.62
50364;BME280;36272;59.400;17.982;2023-02-23T17:27:44;100336.56;;;2.28;93.92
50364;BME280;36272;59.400;17.982;2023-02-23T17:32:46;100329.28;;;2.30;93.89
50364;BME280;36272;59.400;17.982;2023-02-23T17:37:48;100327.28;;;2.32;93.80
50364;BME280;36272;59.400;17.982;2023-02-23T17:42:50;100306.97;;;2.33;93.93
50364;BME280;36272;59.400;17.982;2023-02-23T17:47:53;100314.25;;;2.31;93.69
50364;BME280;36272;59.400;17.982;2023-02-23T17:52:55;100312.59;;;2.30;93.82
50364;BME280;36272;59.400;17.982;2023-02-23T17:57:57;100321.06;;;2.25;93.46
50364;BME280;36272;59.400;17.982;2023-02-23T18:02:59;100320.13;;;2.18;93.57
50364;BME280;36272;59.400;17.982;2023-02-23T18:08:00;100318.50;;;2.17;93.82
50364;BME280;36272;59.400;17.982;2023-02-23T18:13:03;100317.50;;;2.18;93.96
50364;BME280;36272;59.400;17.982;2023-02-23T18:18:05;100322.22;;;2.22;93.92
50364;BME280;36272;59.400;17.982;2023-02-23T18:23:07;100325.00;;;2.29;93.79
50364;BME280;36272;59.400;17.982;2023-02-23T18:28:09;100311.44;;;2.32;94.08
50364;BME280;36272;59.400;17.982;2023-02-23T18:33:12;100297.91;;;2.35;93.86
50364;BME280;36272;59.400;17.982;2023-02-23T18:38:14;100300.19;;;2.38;93.50
50364;BME280;36272;59.400;17.982;2023-02-23T18:43:16;100286.00;;;2.40;93.55
50364;BME280;36272;59.400;17.982;2023-02-23T18:48:18;100280.72;;;2.40;93.56
50364;BME280;36272;59.400;17.982;2023-02-23T18:53:50;100267.75;;;2.45;94.31
50364;BME280;36272;59.400;17.982;2023-02-23T18:59:01;100271.59;;;2.42;93.72
50364;BME280;36272;59.400;17.982;2023-02-23T19:04:06;100257.59;;;2.42;93.67
50364;BME280;36272;59.400;17.982;2023-02-23T19:09:09;100257.59;;;2.42;93.43
50364;BME280;36272;59.400;17.982;2023-02-23T19:14:16;100254.31;;;2.40;93.57
50364;BME280;36272;59.400;17.982;2023-02-23T19:19:18;100259.41;;;2.41;93.67
50364;BME280;36272;59.400;17.982;2023-02-23T19:24:20;100252.91;;;2.44;93.83
50364;BME280;36272;59.400;17.982;2023-02-23T19:29:22;100240.38;;;2.46;93.55
50364;BME280;36272;59.400;17.982;2023-02-23T19:34:23;100244.28;;;2.50;93.41
50364;BME280;36272;59.400;17.982;2023-02-23T19:39:25;100246.13;;;2.49;93.50
50364;BME280;36272;59.400;17.982;2023-02-23T19:44:29;100241.47;;;2.51;93.33
50364;BME280;36272;59.400;17.982;2023-02-23T19:49:30;100243.38;;;2.43;93.51
50364;BME280;36272;59.400;17.982;2023-02-23T19:54:32;100227.25;;;2.37;93.46
50364;BME280;36272;59.400;17.982;2023-02-23T19:59:38;100219.72;;;2.34;93.34
50364;BME280;36272;59.400;17.982;2023-02-23T20:04:39;100215.44;;;2.33;93.51
50364;BME280;36272;59.400;17.982;2023-02-23T20:09:41;100217.78;;;2.28;93.28
50364;BME280;36272;59.400;17.982;2023-02-23T20:14:43;100219.78;;;2.26;93.43
50364;BME280;36272;59.400;17.982;2023-02-23T20:19:45;100206.59;;;2.26;93.60
50364;BME280;36272;59.400;17.982;2023-02-23T20:24:49;100198.03;;;2.24;93.29
50364;BME280;36272;59.400;17.982;2023-02-23T20:29:51;100187.91;;;2.28;93.39
50364;BME280;36272;59.400;17.982;2023-02-23T20:34:56;100178.19;;;2.28;93.29
50364;BME280;36272;59.400;17.982;2023-02-23T20:40:01;100174.19;;;2.32;93.06
50364;BME280;36272;59.400;17.982;2023-02-23T20:45:02;100168.91;;;2.32;93.10
50364;BME280;36272;59.400;17.982;2023-02-23T20:50:05;100164.63;;;2.31;92.92
50364;BME280;36272;59.400;17.982;2023-02-23T20:55:11;100160.50;;;2.29;92.90
50364;BME280;36272;59.400;17.982;2023-02-23T21:00:16;100161.06;;;2.24;92.96
50364;BME280;36272;59.400;17.982;2023-02-23T21:05:30;100157.16;;;2.20;93.13
50364;BME280;36272;59.400;17.982;2023-02-23T21:10:41;100159.78;;;2.20;93.40
50364;BME280;36272;59.400;17.982;2023-02-23T21:15:55;100147.78;;;2.17;93.42
50364;BME280;36272;59.400;17.982;2023-02-23T21:21:01;100155.34;;;2.20;93.13
50364;BME280;36272;59.400;17.982;2023-02-23T21:26:12;100137.03;;;2.19;93.23
50364;BME280;36272;59.400;17.982;2023-02-23T21:31:19;100135.22;;;2.19;93.09
50364;BME280;36272;59.400;17.982;2023-02-23T21:36:20;100125.19;;;2.15;92.93
50364;BME280;36272;59.400;17.982;2023-02-23T21:41:27;100101.53;;;2.06;92.92
50364;BME280;36272;59.400;17.982;2023-02-23T21:46:34;100106.00;;;2.06;93.24
50364;BME280;36272;59.400;17.982;2023-02-23T21:51:35;100101.91;;;2.03;93.05
50364;BME280;36272;59.400;17.982;2023-02-23T21:56:37;100107.16;;;2.03;93.18
50364;BME280;36272;59.400;17.982;2023-02-23T22:01:39;100097.44;;;2.04;92.96
50364;BME280;36272;59.400;17.982;2023-02-23T22:06:46;100085.81;;;1.98;92.74
50364;BME280;36272;59.400;17.982;2023-02-23T22:11:50;100086.25;;;2.02;92.93
50364;BME280;36272;59.400;17.982;2023-02-23T22:16:54;100080.16;;;2.01;92.67
50364;BME280;36272;59.400;17.982;2023-02-23T22:21:56;100075.88;;;2.00;92.60
50364;BME280;36272;59.400;17.982;2023-02-23T22:26:58;100084.19;;;1.97;93.00
50364;BME280;36272;59.400;17.982;2023-02-23T22:32:03;100070.59;;;2.00;93.04
50364;BME280;36272;59.400;17.982;2023-02-23T22:37:05;100072.22;;;2.01;92.90
50364;BME280;36272;59.400;17.982;2023-02-23T22:42:10;100061.69;;;2.01;92.88
50364;BME280;36272;59.400;17.982;2023-02-23T23:50:14;99979.75;;;1.88;93.25
50364;BME280;36272;59.400;17.982;2023-02-23T23:55:16;99975.38;;;1.80;92.87
